logo tempoitalia

Diretta Meteo Atene-Eleftherios, Grecialunedì 31 agosto ore 08:20

Mappa
Sereno 26 °C Sereno 24 Ore: T.min 19 T.max 32
Ponente Nord Km/h 0 Punto di rugiada: 15 °C Umidità: 50% Visibilità: 10 Km
Il sole sorge alle: 06:53 Il sole tramonta alle: 19:55
31 Agosto 2026 08:20 tempo osservato: Sereno Sereno 26 50 1016 vento: Nord N 0
31 Agosto 2026 07:50 tempo osservato: Sereno Sereno 26 47 1016 vento: Nord N 1.8
31 Agosto 2026 07:20 tempo osservato: Sereno Sereno 24 53 1016 vento: Nord N 0
31 Agosto 2026 06:50 tempo osservato: Sereno Sereno 21 60 1016 vento: Nord N 5.5
31 Agosto 2026 06:20 tempo osservato: Sereno Sereno 22 53 1016 vento: Nord N 1.8
31 Agosto 2026 05:50 tempo osservato: Sereno Sereno 21 56 1016 vento: Nord N 5.5
31 Agosto 2026 05:20 tempo osservato: Sereno Sereno 21 56 1016 vento: Nord N 3.7
31 Agosto 2026 04:50 tempo osservato: Sereno Sereno 22 53 1016 vento: Nord N 3.7
31 Agosto 2026 04:20 tempo osservato: Sereno Sereno 19 68 1016 vento: Nord N 1.8
31 Agosto 2026 03:50 tempo osservato: Sereno Sereno 21 60 1016 vento: Nord N 3.7
31 Agosto 2026 03:20 tempo osservato: Sereno Sereno 23 49 1016 vento: Nord N 0
31 Agosto 2026 02:50 tempo osservato: Sereno Sereno 22 60 1016 vento: Nord N 1.8
31 Agosto 2026 02:20 tempo osservato: Sereno Sereno 23 56 1016 vento: Nord N 3.7
31 Agosto 2026 01:50 tempo osservato: Sereno Sereno 24 53 1016 vento: Nord N 5.5
31 Agosto 2026 01:20 tempo osservato: Sereno Sereno 23 64 1016 vento: Nord N 3.7
31 Agosto 2026 00:50 tempo osservato: Sereno Sereno 22 73 1016 vento: Nord O 7.4
31 Agosto 2026 00:20 tempo osservato: Sereno Sereno 22 73 1016 vento: Nord N 1.8
30 Agosto 2026 23:50 tempo osservato: Sereno Sereno 22 73 1016 vento: Nord N 3.7
30 Agosto 2026 23:20 tempo osservato: Sereno Sereno 23 68 1016 vento: Nord N 5.5
30 Agosto 2026 22:50 tempo osservato: Sereno Sereno 23 68 1016 vento: Nord N 0
30 Agosto 2026 22:20 tempo osservato: Sereno Sereno 25 61 1016 vento: Nord N 0
30 Agosto 2026 21:50 tempo osservato: Sereno Sereno 25 61 1016 vento: Nord N 0
30 Agosto 2026 21:20 tempo osservato: Sereno Sereno 25 61 1016 vento: Nord N 3.7
30 Agosto 2026 20:50 tempo osservato: Sereno Sereno 26 54 1015 vento: Nord N 0
30 Agosto 2026 20:20 tempo osservato: Sereno Sereno 26 54 1015 vento: Nord E/NE 11.1
30 Agosto 2026 19:50 tempo osservato: Sereno Sereno 27 50 1015 vento: Nord NE 11.1
30 Agosto 2026 19:20 tempo osservato: Sereno Sereno 28 45 1015 vento: Nord NE 14.8
30 Agosto 2026 18:50 tempo osservato: Sereno Sereno 28 45 1015 vento: Nord NE 14.8
30 Agosto 2026 18:20 tempo osservato: Sereno Sereno 28 48 1015 vento: Nord E/NE 20.3
30 Agosto 2026 17:50 tempo osservato: Sereno Sereno 29 42 1015 vento: Nord NE 18.5
30 Agosto 2026 17:20 tempo osservato: Sereno Sereno 30 37 1015 vento: Nord NE 16.7
30 Agosto 2026 16:50 tempo osservato: Sereno Sereno 30 37 1015 vento: Nord NE 16.7
30 Agosto 2026 16:20 tempo osservato: Sereno Sereno 30 37 1015 vento: Nord NE 16.7
30 Agosto 2026 15:50 tempo osservato: Sereno Sereno 30 35 1015 vento: Nord E/NE 16.7
30 Agosto 2026 15:20 tempo osservato: Sereno Sereno 31 33 1015 vento: Nord E/NE 16.7
30 Agosto 2026 14:50 tempo osservato: Sereno Sereno 32 33 1016 vento: Nord E/NE 22.2
30 Agosto 2026 14:20 tempo osservato: Sereno Sereno 31 33 1016 vento: Nord NE 20.3
30 Agosto 2026 13:50 tempo osservato: Sereno Sereno 30 33 1016 vento: Nord E/NE 22.2
30 Agosto 2026 13:20 tempo osservato: Sereno Sereno 30 35 1016 vento: Nord E/NE 20.3
30 Agosto 2026 12:50 tempo osservato: Sereno Sereno 30 37 1016 vento: Nord E/NE 20.3
30 Agosto 2026 11:50 tempo osservato: Sereno Sereno 28 42 1016 vento: Nord NE 18.5
30 Agosto 2026 11:20 tempo osservato: Sereno Sereno 29 37 1017 vento: Nord NE 16.7
30 Agosto 2026 10:50 tempo osservato: Sereno Sereno 29 35 1017 vento: Nord NE 18.5
30 Agosto 2026 10:20 tempo osservato: Sereno Sereno 28 39 1016 vento: Nord N/NE 16.7
30 Agosto 2026 09:50 tempo osservato: Sereno Sereno 27 42 1016 vento: Nord NE 14.8
30 Agosto 2026 09:20 tempo osservato: Sereno Sereno 27 44 1016 vento: Nord NE 14.8
30 Agosto 2026 08:50 tempo osservato: Sereno Sereno 26 44 1016 vento: Nord N 3.7